Main page
METAR-TAF:

METAR-TAF

Airports :

Durham Tees Valley Airport

Durham, England

latitude: 54-31N, longitude: 001-25W, elevation: 37 m

Current weather observation

The report was made 36 minutes ago, at 16:50 UTC
Wind 11 kt from the West/Southwest, varying between Southwest and West
Temperature 24°C
Humidity 34%
Pressure 1017 hPa
Visibility 10 km or more
no clouds below 1500 m and no cumulonimbus

METAR: EGNV 191650Z 25011KT 220V280 CAVOK 24/07 Q1017

Time: 18:26 (17:26 UTC)

Forecast

The report was made 3 hours and 29 minutes ago, at 13:57 UTC
Forecast valid from 19 at 15 UTC to 19 at 21 UTC
Wind 8 kt from the West/Southwest
Visibility 10 km or more
Few clouds at a height of 4500 ft

TAF: EGNV 191357Z 1915/1921 24008KT 9999 FEW045

Weather observations and forecasts of more than 4000 airports (METAR and TAF reports).

The available stations are represented by yellow and red dots on the map.

Hover mouse over dot to see the name of the station.

Then click to see weather observations and forecasts.

To change the map : click on the green buttons with a black cross to zoom in, on the green button with a dash to zoom out, or on the green arrows for adjacent maps.


METAR-TAF: